createdAt,value
2022-09-07T00:03:08.837Z,100024.59
2022-09-07T00:08:12.489Z,100028.06
2022-09-07T00:13:15.316Z,100037.13
2022-09-07T00:18:19.805Z,100031.22
2022-09-07T00:23:22.645Z,100031.22
2022-09-07T00:28:25.474Z,100023.00
2022-09-07T00:33:30.176Z,100019.22
2022-09-07T00:38:33.093Z,100015.47
2022-09-07T00:43:38.419Z,100017.06
2022-09-07T00:48:48.641Z,99998.19
2022-09-07T00:53:55.512Z,100001.88
2022-09-07T00:58:58.795Z,99998.13
2022-09-07T01:04:04.565Z,99981.56
2022-09-07T01:09:11.083Z,99987.00
2022-09-07T01:14:16.807Z,100002.09
2022-09-07T01:20:02.760Z,99993.69
2022-09-07T01:25:11.634Z,100012.78
2022-09-07T01:30:18.988Z,100008.28
2022-09-07T01:35:30.072Z,100028.34
2022-09-07T01:40:42.602Z,100104.69
2022-09-07T01:45:49.336Z,100130.63
2022-09-07T01:50:56.369Z,100180.41
2022-09-07T01:56:03.964Z,100176.41
2022-09-07T02:01:11.392Z,100180.75
2022-09-07T02:06:19.777Z,100179.63
2022-09-07T02:11:26.328Z,100171.66
2022-09-07T02:16:33.440Z,100160.97
2022-09-07T02:21:39.684Z,100137.34
2022-09-07T02:26:46.947Z,100128.94
2022-09-07T02:31:52.089Z,100135.03
2022-09-07T02:36:55.531Z,100140.25
2022-09-07T02:41:58.551Z,100159.78
2022-09-07T02:47:20.182Z,100192.47
2022-09-07T02:52:31.931Z,100184.88
2022-09-07T02:57:44.150Z,100159.28
2022-09-07T03:02:55.675Z,100147.78
2022-09-07T03:08:04.481Z,100145.88
2022-09-07T03:13:07.321Z,100156.59
2022-09-07T03:18:12.438Z,100150.28
2022-09-07T03:23:15.460Z,100136.09
2022-09-07T03:28:18.520Z,100148.84
2022-09-07T03:33:22.765Z,100131.53
2022-09-07T03:38:25.667Z,100116.72
2022-09-07T03:43:29.536Z,100096.19
2022-09-07T03:48:35.635Z,100060.09
2022-09-07T03:53:40.516Z,100029.56
2022-09-07T03:58:43.654Z,100033.53
2022-09-07T04:03:48.254Z,100046.31
2022-09-07T04:08:51.084Z,100031.06
2022-09-07T04:13:53.967Z,100037.03
2022-09-07T04:18:59.311Z,100050.06
2022-09-07T04:24:02.339Z,100053.50
2022-09-07T04:29:06.896Z,100082.44
2022-09-07T04:34:12.089Z,100068.28
2022-09-07T04:39:14.994Z,100056.56
2022-09-07T04:44:17.831Z,100076.22
2022-09-07T04:49:22.054Z,100078.09
2022-09-07T04:54:26.423Z,100067.72
2022-09-07T04:59:29.314Z,100054.94
2022-09-07T05:04:36.107Z,100052.41
2022-09-07T05:09:38.945Z,100040.19
2022-09-07T05:14:41.776Z,100037.66
2022-09-07T05:19:46.010Z,100027.91
2022-09-07T05:24:49.072Z,100020.13
2022-09-07T05:30:08.231Z,100003.59
2022-09-07T05:35:12.861Z,100003.91
2022-09-07T05:40:16.501Z,100016.50
2022-09-07T05:45:19.528Z,100021.16
2022-09-07T05:50:23.831Z,100026.91
2022-09-07T05:55:30.724Z,100028.75
2022-09-07T06:00:33.965Z,100037.50
2022-09-07T06:15:49.224Z,100047.53
2022-09-07T06:20:53.416Z,100047.28
2022-09-07T06:25:56.401Z,100053.38
2022-09-07T06:31:02.883Z,100057.88
2022-09-07T06:36:09.526Z,100065.09
2022-09-07T06:52:01.884Z,100082.34
2022-09-07T06:57:08.618Z,100090.25
2022-09-07T07:02:13.429Z,100099.91
2022-09-07T07:07:17.662Z,100095.72
2022-09-07T07:17:22.414Z,100103.97
2022-09-07T07:27:50.469Z,100115.81
2022-09-07T07:32:53.508Z,100109.28
2022-09-07T07:43:20.622Z,100111.00
2022-09-07T07:53:45.167Z,100106.03
2022-09-07T07:58:48.990Z,100113.63
2022-09-07T08:03:51.988Z,100116.03
2022-09-07T08:08:57.073Z,100110.81
2022-09-07T08:14:02.214Z,100100.94
2022-09-07T08:19:05.707Z,100103.09
2022-09-07T08:24:10.304Z,100110.50
2022-09-07T08:29:13.219Z,100125.03
2022-09-07T08:34:16.300Z,100123.47
2022-09-07T08:39:21.327Z,100126.19
2022-09-07T08:44:28.795Z,100124.28
2022-09-07T08:49:39.737Z,100121.84
2022-09-07T08:54:54.686Z,100121.28
2022-09-07T09:00:07.169Z,100135.84
2022-09-07T09:05:21.777Z,100127.41
2022-09-07T09:16:06.077Z,100125.59
2022-09-07T09:27:50.598Z,100131.25
2022-09-07T09:33:14.642Z,100126.03
2022-09-07T09:38:33.107Z,100129.22
2022-09-07T09:43:45.763Z,100142.00
2022-09-07T09:48:57.864Z,100138.66
2022-09-07T09:54:02.699Z,100127.41
2022-09-07T10:04:47.138Z,100148.59
2022-09-07T10:16:40.118Z,100122.94
2022-09-07T10:21:45.953Z,100126.69
2022-09-07T10:26:48.837Z,100119.25
2022-09-07T10:32:07.037Z,100125.44
2022-09-07T10:37:19.526Z,100120.97
2022-09-07T10:42:28.986Z,100109.13
2022-09-07T10:47:44.361Z,100110.38
2022-09-07T10:52:53.297Z,100119.44
2022-09-07T10:58:10.540Z,100109.03
2022-09-07T11:03:28.125Z,100102.38
2022-09-07T11:14:13.797Z,100097.16
2022-09-07T11:19:37.658Z,100103.97
2022-09-07T11:25:29.192Z,100098.75
2022-09-07T11:30:20.856Z,100092.41
2022-09-07T11:35:35.109Z,100095.66
2022-09-07T11:40:49.331Z,100087.97
2022-09-07T11:45:55.425Z,100079.66
2022-09-07T11:51:01.576Z,100087.78
2022-09-07T11:56:13.292Z,100084.59
2022-09-07T12:01:23.026Z,100091.19
2022-09-07T12:06:51.050Z,100093.22
2022-09-07T12:12:17.576Z,100067.72
2022-09-07T12:17:34.374Z,100076.06
2022-09-07T12:22:37.868Z,100062.81
2022-09-07T12:27:42.075Z,100063.53
2022-09-07T12:33:06.663Z,100053.69
2022-09-07T12:39:00.572Z,100051.84
2022-09-07T12:44:15.486Z,100054.59
2022-09-07T12:49:35.686Z,100061.09
2022-09-07T12:54:44.623Z,100069.84
2022-09-07T13:00:01.267Z,100062.38
2022-09-07T13:05:17.897Z,100051.91
2022-09-07T13:10:32.548Z,100051.53
2022-09-07T13:15:48.591Z,100048.94
2022-09-07T13:21:36.042Z,100039.31
2022-09-07T13:27:04.298Z,100032.44
2022-09-07T13:32:15.841Z,100036.41
2022-09-07T13:37:23.002Z,100031.56
2022-09-07T13:42:30.478Z,100030.88
2022-09-07T13:47:45.911Z,100029.50
2022-09-07T13:53:04.216Z,100037.72
2022-09-07T13:58:15.665Z,100027.06
2022-09-07T14:03:20.313Z,100032.00
2022-09-07T14:08:26.330Z,100029.72
2022-09-07T14:13:29.089Z,100030.72
2022-09-07T14:18:34.133Z,100029.00
2022-09-07T14:23:39.781Z,100034.84
2022-09-07T14:28:43.014Z,100024.84
2022-09-07T14:33:51.299Z,100032.91
2022-09-07T14:39:10.056Z,100020.44
2022-09-07T14:44:33.985Z,100016.00
2022-09-07T14:49:38.556Z,100024.50
2022-09-07T14:54:41.450Z,100014.16
2022-09-07T14:59:46.412Z,100016.09
2022-09-07T15:05:11.657Z,100017.00
2022-09-07T15:10:16.806Z,100009.81
2022-09-07T15:15:26.292Z,100010.81
2022-09-07T15:20:43.138Z,100018.03
2022-09-07T15:25:51.852Z,100013.47
2022-09-07T15:36:20.450Z,100006.09
2022-09-07T15:41:24.640Z,100001.56
2022-09-07T15:46:27.863Z,99998.47
2022-09-07T16:13:11.174Z,100005.38
2022-09-07T16:18:17.218Z,100007.50
2022-09-07T16:23:23.055Z,100009.84
2022-09-07T16:28:26.645Z,99994.97
2022-09-07T16:33:36.651Z,100000.63
2022-09-07T16:38:45.624Z,99986.53
2022-09-07T16:43:49.397Z,99980.00
2022-09-07T16:48:53.692Z,99992.28
2022-09-07T16:53:59.310Z,99992.69
2022-09-07T16:59:03.921Z,99988.88
2022-09-07T17:04:10.924Z,99979.19
2022-09-07T17:09:16.012Z,99987.16
2022-09-07T17:14:18.927Z,99998.59
2022-09-07T17:19:30.099Z,99987.59
2022-09-07T17:24:34.613Z,99983.00
2022-09-07T17:29:37.795Z,99975.16
2022-09-07T17:34:40.665Z,99981.69
2022-09-07T17:39:45.128Z,100001.31
2022-09-07T17:44:52.903Z,100001.44
2022-09-07T17:49:56.081Z,100009.50
2022-09-07T17:55:02.179Z,100006.50
2022-09-07T18:00:11.159Z,100007.16
2022-09-07T18:05:14.576Z,100007.28
2022-09-07T18:10:19.278Z,100003.66
2022-09-07T18:15:22.203Z,100011.00
2022-09-07T18:20:25.878Z,100002.59
2022-09-07T18:25:30.469Z,100005.56
2022-09-07T18:30:36.721Z,99999.25
2022-09-07T18:35:39.551Z,100005.75
2022-09-07T18:40:43.691Z,100009.94
2022-09-07T18:45:46.510Z,100011.84
2022-09-07T18:50:54.357Z,100006.56
2022-09-07T18:56:04.136Z,100001.03
2022-09-07T19:01:09.027Z,100005.38
2022-09-07T19:06:14.048Z,100006.22
2022-09-07T19:11:20.627Z,100010.97
2022-09-07T19:16:23.795Z,100005.25
2022-09-07T19:21:30.187Z,100001.88
2022-09-07T19:26:36.625Z,100001.25
2022-09-07T19:31:39.551Z,100009.63
2022-09-07T19:36:42.447Z,100009.53
2022-09-07T19:41:46.748Z,100007.44
2022-09-07T19:46:50.057Z,100013.72
2022-09-07T19:51:53.004Z,100010.31
2022-09-07T19:56:57.168Z,100000.91
2022-09-07T20:01:59.979Z,99998.41
2022-09-07T20:07:04.101Z,99994.59
2022-09-07T20:12:10.140Z,99996.44
2022-09-07T20:17:13.317Z,99976.75
2022-09-07T20:22:16.203Z,99985.09
2022-09-07T20:27:20.865Z,99971.81
2022-09-07T20:32:24.487Z,99963.56
2022-09-07T20:37:28.106Z,99963.50
2022-09-07T20:42:32.461Z,99962.44
2022-09-07T20:47:35.427Z,99965.06
2022-09-07T20:52:38.215Z,99967.91
2022-09-07T20:57:42.385Z,99954.03
2022-09-07T21:02:45.338Z,99946.78
2022-09-07T21:07:48.178Z,99941.47
2022-09-07T21:12:53.228Z,99944.59
2022-09-07T21:17:56.064Z,99942.81
2022-09-07T21:22:59.052Z,99948.75
2022-09-07T21:28:03.581Z,99942.91
2022-09-07T21:33:06.525Z,99947.44
2022-09-07T21:38:09.440Z,99941.53
2022-09-07T21:43:13.628Z,99951.34
2022-09-07T21:48:16.421Z,99944.66
2022-09-07T21:53:19.289Z,99949.28
2022-09-07T21:58:23.505Z,99952.91
2022-09-07T22:03:26.535Z,99960.13
2022-09-07T22:08:29.530Z,99947.50
2022-09-07T22:13:34.164Z,99943.09
2022-09-07T22:18:38.036Z,99937.56
2022-09-07T22:23:42.649Z,99940.50
2022-09-07T22:28:46.852Z,99948.44
2022-09-07T22:33:51.034Z,99946.88
2022-09-07T22:38:55.737Z,99937.81
2022-09-07T22:44:00.561Z,99945.44
2022-09-07T22:49:03.818Z,99935.88
2022-09-07T22:54:07.126Z,99923.66
2022-09-07T22:59:12.954Z,99926.59
2022-09-07T23:04:15.870Z,99915.59
2022-09-07T23:09:20.752Z,99915.13
2022-09-07T23:14:24.882Z,99914.00
2022-09-07T23:19:27.783Z,99913.25
2022-09-07T23:24:31.349Z,99907.44
2022-09-07T23:29:35.961Z,99899.38
2022-09-07T23:34:38.699Z,99892.81
2022-09-07T23:39:41.885Z,99881.84
2022-09-07T23:44:48.378Z,99878.38
2022-09-07T23:49:51.155Z,99865.00
2022-09-07T23:54:53.885Z,99871.81
2022-09-07T23:59:58.042Z,99852.69
